Time;durP1;ratioP1;P1;durP2;ratioP2;P2;SDS_P1;SDS_P2;PMS_P1;PMS_P2;Temp;Humidity;BMP_temperature;BMP_pressure;BME280_temperature;BME280_humidity;BME280_pressure;Samples;Min_cycle;Max_cycle;Signal;HPM_P1;HPM_P2
2022/02/02 00:00:08;;;;;;;2.60;1.85;;;;;;;1.23;84.44;94780.67;1740187;82;21052;-80
2022/02/02 00:02:58;;;;;;;1.67;1.52;;;;;;;1.24;84.27;94796.34;1741144;82;21012;-80
2022/02/02 00:08:55;;;;;;;2.07;1.70;;;;;;;1.21;84.48;94778.77;1740974;82;20992;-80
2022/02/02 00:13:07;;;;;;;2.50;1.40;;;;;;;1.25;84.34;94785.14;1741064;82;21068;-80
2022/02/02 00:15:54;;;;;;;2.27;1.65;;;;;;;1.29;84.12;94782.57;1740507;82;21367;-80
2022/02/02 00:18:36;;;;;;;2.77;2.40;;;;;;;1.30;84.22;94771.40;1739213;82;20992;-80
2022/02/02 00:23:20;;;;;;;2.77;2.10;;;;;;;1.33;84.21;94782.58;1740742;82;21004;-81
2022/02/02 00:25:59;;;;;;;2.47;1.77;;;;;;;1.36;84.00;94780.97;1740647;82;20984;-81
2022/02/02 00:28:26;;;;;;;2.30;1.55;;;;;;;1.42;83.96;94782.06;1738717;82;21009;-80
2022/02/02 00:30:45;;;;;;;2.47;1.65;;;;;;;1.43;83.93;94777.27;1738727;82;21025;-80
2022/02/02 00:35:56;;;;;;;2.22;2.05;;;;;;;1.45;83.90;94776.61;1740891;82;21001;-80
2022/02/02 00:38:13;;;;;;;1.70;1.50;;;;;;;1.46;83.77;94764.13;1739292;82;21045;-80
2022/02/02 00:40:43;;;;;;;3.20;1.70;;;;;;;1.50;83.86;94767.98;1737032;82;21045;-80
2022/02/02 00:43:11;;;;;;;2.12;1.50;;;;;;;1.53;83.84;94774.04;1732641;83;21031;-80
2022/02/02 00:45:45;;;;;;;2.40;1.50;;;;;;;1.56;83.75;94781.86;1730991;81;21356;-80
2022/02/02 00:48:11;;;;;;;1.50;1.40;;;;;;;1.55;83.72;94781.07;1732736;82;20945;-80
2022/02/02 00:50:37;;;;;;;1.67;1.42;;;;;;;1.55;83.65;94773.88;1732827;82;20964;-80
2022/02/02 00:53:03;;;;;;;3.05;1.62;;;;;;;1.56;83.75;94772.91;1732669;83;21033;-80
2022/02/02 00:55:29;;;;;;;1.87;1.62;;;;;;;1.57;83.60;94771.94;1732655;83;20953;-80
2022/02/02 00:57:55;;;;;;;2.15;1.95;;;;;;;1.62;83.57;94773.52;1736390;82;21297;-80
2022/02/02 01:00:20;;;;;;;1.80;1.40;;;;;;;1.64;83.56;94775.45;1732689;82;20969;-80
2022/02/02 01:02:46;;;;;;;1.50;1.40;;;;;;;1.63;83.42;94774.66;1732820;83;20968;-80
2022/02/02 01:05:14;;;;;;;1.87;1.77;;;;;;;1.64;83.33;94769.05;1732678;83;21400;-80
2022/02/02 01:10:19;;;;;;;1.67;1.52;;;;;;;1.69;83.18;94756.54;1732976;82;20973;-81
2022/02/02 01:12:52;;;;;;;1.80;1.30;;;;;;;1.71;83.05;94762.29;1732031;83;20993;-80
2022/02/02 01:20:49;;;;;;;1.62;1.27;;;;;;;1.75;83.27;94767.39;1732668;82;20953;-81
2022/02/02 01:28:33;;;;;;;1.62;1.22;;;;;;;1.75;83.66;94775.06;1652914;86;21019;-80
2022/02/02 01:31:00;;;;;;;2.40;1.90;;;;;;;1.72;84.01;94772.36;1705920;83;20993;-81
2022/02/02 01:33:27;;;;;;;1.65;1.37;;;;;;;1.71;83.81;94781.01;1732754;83;21009;-81
2022/02/02 01:35:53;;;;;;;1.17;1.12;;;;;;;1.70;83.93;94793.50;1732535;82;20993;-80
2022/02/02 01:38:19;;;;;;;1.40;1.30;;;;;;;1.67;84.05;94798.95;1732919;83;21371;-81
2022/02/02 01:40:51;;;;;;;1.62;1.52;;;;;;;1.68;84.16;94804.39;1733533;83;21077;-80
2022/02/02 01:43:19;;;;;;;1.30;1.20;;;;;;;1.66;84.45;94804.25;1735018;82;21363;-81
2022/02/02 01:45:51;;;;;;;1.98;1.62;;;;;;;1.65;84.61;94807.29;1719192;82;20996;-80
2022/02/02 01:55:39;;;;;;;1.30;1.20;;;;;;;1.50;85.44;94792.30;1740827;82;20969;-80
2022/02/02 02:00:38;;;;;;;1.30;1.20;;;;;;;1.53;85.56;94788.12;1740872;82;20968;-80
2022/02/02 02:03:04;;;;;;;1.60;1.35;;;;;;;1.53;85.59;94791.16;1741040;82;21336;-80
2022/02/02 02:05:30;;;;;;;1.45;1.30;;;;;;;1.52;85.68;94794.20;1740781;82;20977;-81
2022/02/02 02:07:55;;;;;;;1.40;1.10;;;;;;;1.53;85.56;94799.64;1740904;82;20954;-81
2022/02/02 02:10:23;;;;;;;1.25;1.12;;;;;;;1.53;85.75;94791.16;1740770;82;21324;-80
2022/02/02 02:12:58;;;;;;;1.17;1.07;;;;;;;1.53;85.68;94796.28;1720166;82;21023;-81
2022/02/02 02:15:18;;;;;;;1.32;1.22;;;;;;;1.56;85.50;94797.23;1738108;82;21355;-81
2022/02/02 02:17:44;;;;;;;1.37;1.27;;;;;;;1.59;85.21;94789.21;1740857;82;21000;-80
2022/02/02 02:20:11;;;;;;;1.05;1.00;;;;;;;1.63;84.92;94798.98;1740649;82;21407;-81
2022/02/02 02:22:41;;;;;;;2.40;1.05;;;;;;;1.67;84.83;94801.52;1740600;82;21009;-81
2022/02/02 02:25:07;;;;;;;1.82;1.10;;;;;;;1.70;84.77;94799.90;1740593;82;20996;-81
2022/02/02 02:27:33;;;;;;;2.47;1.27;;;;;;;1.70;84.90;94805.50;1740894;82;20993;-81
2022/02/02 02:37:45;;;;;;;1.40;1.10;;;;;;;1.73;84.99;94795.72;1740693;82;21039;-81
2022/02/02 02:40:19;;;;;;;1.67;1.27;;;;;;;1.72;85.43;94797.97;1739374;82;21497;-81
2022/02/02 02:56:15;;;;;;;2.17;1.30;;;;;;;1.52;86.69;94798.52;1740809;82;21348;-81
2022/02/02 02:58:49;;;;;;;1.22;1.12;;;;;;;1.57;86.69;94805.22;1740821;82;20983;-81
2022/02/02 03:01:46;;;;;;;1.27;1.10;;;;;;;1.57;87.04;94795.78;1739788;82;21005;-81
2022/02/02 03:31:48;;;;;;;4.00;1.90;;;;;;;1.83;85.43;94807.55;1741070;81;21388;-81
2022/02/02 03:53:40;;;;;;;1.60;1.50;;;;;;;1.98;84.39;94805.88;1684264;84;21378;-81
2022/02/02 03:58:32;;;;;;;1.60;1.02;;;;;;;1.98;84.38;94805.40;1732789;82;21025;-80
2022/02/02 04:06:08;;;;;;;1.50;1.40;;;;;;;1.97;84.81;94824.78;1732777;82;20978;-81
2022/02/02 04:08:37;;;;;;;3.47;2.72;;;;;;;1.95;84.96;94827.51;1732569;82;21040;-80
2022/02/02 04:11:04;;;;;;;3.33;2.05;;;;;;;1.94;85.44;94827.65;1732686;83;21408;-81
2022/02/02 04:59:30;;;;;;;2.17;1.77;;;;;;;1.66;87.81;94863.93;1732847;82;20958;-80
2022/02/02 05:02:35;;;;;;;1.95;1.50;;;;;;;1.64;87.75;94864.58;1708120;83;21344;-80
2022/02/02 05:04:52;;;;;;;1.75;1.65;;;;;;;1.60;88.11;94861.20;1703488;83;20977;-80
2022/02/02 05:07:13;;;;;;;2.25;1.80;;;;;;;1.54;87.95;94856.75;1703842;83;21037;-80
2022/02/02 05:13:13;;;;;;;2.02;1.87;;;;;;;1.48;88.33;94865.41;1683563;84;21048;-80
2022/02/02 05:52:17;;;;;;;17.77;6.47;;;;;;;1.69;88.68;94890.48;1711429;84;21063;-80
2022/02/02 05:54:43;;;;;;;19.87;10.08;;;;;;;1.70;88.67;94901.52;1714919;83;21013;-80
2022/02/02 05:57:14;;;;;;;101.33;30.92;;;;;;;1.71;88.47;94892.39;1711409;84;21048;-80
2022/02/02 05:59:42;;;;;;;24.07;10.03;;;;;;;1.76;88.54;94899.09;1711365;84;20993;-80
2022/02/02 06:02:13;;;;;;;18.80;9.05;;;;;;;1.80;88.34;94902.16;1734379;81;20969;-80
2022/02/02 06:04:46;;;;;;;29.30;11.22;;;;;;;1.81;88.47;94907.59;1714947;83;21396;-80
2022/02/02 06:07:14;;;;;;;31.87;13.05;;;;;;;1.80;88.48;94907.27;1711152;83;21056;-80
2022/02/02 06:09:43;;;;;;;6.12;3.20;;;;;;;1.75;88.53;94910.30;1711018;84;21428;-80
2022/02/02 06:12:09;;;;;;;21.17;14.43;;;;;;;1.73;88.72;94910.95;1711418;83;21064;-80
2022/02/02 06:14:35;;;;;;;34.35;19.37;;;;;;;1.73;88.53;94912.23;1711303;83;21035;-80
2022/02/02 06:17:05;;;;;;;45.38;15.50;;;;;;;1.74;88.63;94921.52;1711421;83;20992;-80
2022/02/02 06:19:28;;;;;;;63.42;21.33;;;;;;;1.74;88.55;94908.70;1710990;84;21006;-80
2022/02/02 06:22:11;;;;;;;23.15;8.40;;;;;;;1.76;88.53;94917.50;1711548;84;20976;-80
2022/02/02 06:24:47;;;;;;;20.57;8.08;;;;;;;1.74;88.67;94930.47;1710900;84;21339;-80
2022/02/02 06:27:25;;;;;;;29.32;11.05;;;;;;;1.72;88.67;94923.92;1710646;83;21073;-80
2022/02/02 06:30:06;;;;;;;16.57;7.55;;;;;;;1.70;88.92;94925.36;1711441;84;21075;-80
2022/02/02 06:32:50;;;;;;;22.15;10.03;;;;;;;1.68;88.86;94928.58;1691007;84;21028;-80
2022/02/02 06:35:16;;;;;;;20.55;11.57;;;;;;;1.70;88.92;94938.65;1711412;84;21477;-80
2022/02/02 06:37:42;;;;;;;26.40;11.08;;;;;;;1.71;88.92;94936.41;1711299;83;20995;-80
2022/02/02 06:40:10;;;;;;;8.55;3.60;;;;;;;1.72;89.38;94936.24;1711221;84;21040;-80
2022/02/02 06:42:36;;;;;;;53.35;18.10;;;;;;;1.72;89.10;94943.92;1708561;83;21040;-80
2022/02/02 06:45:03;;;;;;;33.20;11.25;;;;;;;1.72;89.21;94948.25;1684982;84;21347;-80
2022/02/02 06:47:28;;;;;;;22.52;9.08;;;;;;;1.69;89.41;94944.25;1704578;83;21014;-80
2022/02/02 06:50:04;;;;;;;10.45;4.15;;;;;;;1.68;89.34;94959.78;1703605;84;21388;-80
2022/02/02 06:52:25;;;;;;;12.50;5.33;;;;;;;1.69;89.69;94955.78;1702311;84;21049;-80
2022/02/02 06:55:05;;;;;;;10.23;4.90;;;;;;;1.73;89.50;94957.05;1703362;84;21029;-80
2022/02/02 06:57:48;;;;;;;6.30;3.95;;;;;;;1.76;89.21;94963.59;1703504;83;20996;-80
2022/02/02 07:03:07;;;;;;;32.67;12.25;;;;;;;1.82;89.23;94955.77;1732131;83;20954;-80
2022/02/02 07:05:32;;;;;;;5.53;4.12;;;;;;;1.81;89.27;94962.66;1706647;84;21001;-80
2022/02/02 07:27:04;;;;;;;44.00;19.57;;;;;;;1.82;89.15;94998.03;1703969;84;20400;-80
2022/02/02 07:35:04;;;;;;;27.67;13.22;;;;;;;1.88;88.94;94991.77;1703468;84;21055;-80
2022/02/02 07:37:35;;;;;;;61.00;23.18;;;;;;;1.91;88.71;94989.36;1704093;83;21344;-80
2022/02/02 07:40:05;;;;;;;62.17;24.18;;;;;;;1.94;88.72;94983.91;1703311;84;21117;-80
2022/02/02 07:42:31;;;;;;;41.15;15.75;;;;;;;1.96;88.54;94993.53;1709267;84;21031;-80
2022/02/02 07:45:05;;;;;;;22.27;9.90;;;;;;;1.97;88.49;94992.57;1716512;83;20991;-80
2022/02/02 07:47:33;;;;;;;15.75;6.92;;;;;;;2.00;88.33;94996.88;1716520;83;20949;-80
2022/02/02 07:49:58;;;;;;;12.10;8.83;;;;;;;2.02;88.24;94996.23;1716317;84;21011;-80
2022/02/02 07:52:28;;;;;;;8.60;4.08;;;;;;;2.05;88.16;94997.66;1714415;83;21005;-80
2022/02/02 07:54:52;;;;;;;7.37;3.87;;;;;;;2.05;88.00;94997.19;1711594;83;20957;-80
2022/02/02 07:57:27;;;;;;;8.13;4.40;;;;;;;2.06;88.12;95015.44;1711493;84;21016;-80
2022/02/02 08:02:22;;;;;;;7.85;4.87;;;;;;;1.97;88.30;95022.03;1711569;83;21317;-80
2022/02/02 08:04:45;;;;;;;5.70;3.00;;;;;;;1.91;88.31;95016.25;1711648;83;21279;-80
2022/02/02 08:07:18;;;;;;;14.18;6.92;;;;;;;1.87;88.65;95025.23;1711512;83;21426;-80
2022/02/02 08:09:51;;;;;;;28.92;11.70;;;;;;;1.86;88.57;95022.34;1686536;84;21006;-80
2022/02/02 08:12:19;;;;;;;20.00;13.18;;;;;;;1.87;88.73;95028.59;1711610;83;21369;-80
2022/02/02 08:14:44;;;;;;;26.27;12.03;;;;;;;1.86;88.53;95037.72;1711220;84;20968;-80
2022/02/02 08:17:10;;;;;;;21.20;9.13;;;;;;;1.86;88.74;95032.59;1711334;83;20972;-80
2022/02/02 08:19:38;;;;;;;10.32;5.47;;;;;;;1.85;88.71;95038.67;1711387;83;20969;-81
2022/02/02 08:22:03;;;;;;;15.38;6.87;;;;;;;1.86;88.81;95030.03;1711350;83;21053;-80
2022/02/02 08:24:29;;;;;;;22.58;10.80;;;;;;;1.90;88.92;95031.30;1711393;83;21063;-80
2022/02/02 08:26:55;;;;;;;20.88;9.05;;;;;;;1.94;88.82;95027.45;1711420;84;21032;-80
2022/02/02 08:29:23;;;;;;;18.92;8.95;;;;;;;1.97;88.63;95031.80;1711474;83;21029;-80
2022/02/02 08:31:49;;;;;;;40.05;17.20;;;;;;;2.02;88.52;95023.61;1711441;84;21068;-80
2022/02/02 08:34:15;;;;;;;12.33;6.90;;;;;;;2.05;88.35;95036.09;1711416;83;20949;-80
2022/02/02 08:36:45;;;;;;;12.50;6.83;;;;;;;2.05;88.26;95039.94;1711451;84;21028;-80
2022/02/02 08:39:26;;;;;;;21.30;10.23;;;;;;;2.05;88.25;95037.38;1711405;83;20993;-80
2022/02/02 08:41:58;;;;;;;8.73;4.70;;;;;;;2.11;88.03;95038.00;1711697;83;21000;-80
2022/02/02 08:44:40;;;;;;;6.00;3.17;;;;;;;2.25;87.94;95032.70;1703566;84;21024;-80
2022/02/02 08:46:47;;;;;;;8.50;4.47;;;;;;;2.40;87.82;95039.55;1700555;84;20961;-80
2022/02/02 08:49:12;;;;;;;13.43;7.60;;;;;;;2.47;87.33;95041.48;1702897;84;21455;-80
2022/02/02 08:51:40;;;;;;;9.40;5.87;;;;;;;2.48;87.10;95044.36;1703781;84;21049;-80
2022/02/02 08:54:31;;;;;;;13.70;6.25;;;;;;;2.49;87.10;95048.52;1703748;84;21005;-80
2022/02/02 09:02:07;;;;;;;5.22;2.85;;;;;;;2.32;87.23;95058.01;1703587;83;21013;-80
2022/02/02 09:07:15;;;;;;;16.15;9.60;;;;;;;2.28;87.57;95068.28;1703481;84;21032;-80
2022/02/02 09:25:54;;;;;;;10.72;6.33;;;;;;;2.35;88.08;95099.49;1732496;83;21381;-80
2022/02/02 09:35:57;;;;;;;18.10;9.35;;;;;;;2.72;87.84;95093.00;1732747;82;20958;-80
2022/02/02 09:38:23;;;;;;;9.90;5.97;;;;;;;2.84;87.80;95093.45;1732679;82;20958;-80
2022/02/02 09:43:25;;;;;;;12.00;7.60;;;;;;;2.82;87.15;95073.59;1732771;83;21009;-80
2022/02/02 09:45:57;;;;;;;10.38;7.20;;;;;;;2.76;87.33;95080.16;1712509;83;20985;-80
2022/02/02 09:48:28;;;;;;;11.12;6.28;;;;;;;2.74;87.58;95080.81;1731871;83;20981;-80
2022/02/02 09:50:55;;;;;;;10.88;6.87;;;;;;;2.76;87.51;95078.88;1732156;83;20989;-80
2022/02/02 09:53:31;;;;;;;7.17;5.53;;;;;;;2.84;87.49;95078.06;1732367;83;20945;-80
2022/02/02 10:04:46;;;;;;;9.88;5.60;;;;;;;2.93;86.93;95092.48;1732582;83;21021;-80
2022/02/02 10:07:21;;;;;;;12.30;5.15;;;;;;;2.94;86.98;95085.09;1729712;83;21065;-80
2022/02/02 10:09:47;;;;;;;5.67;3.77;;;;;;;2.95;87.04;95081.56;1728796;83;21025;-80
2022/02/02 10:14:35;;;;;;;7.40;5.20;;;;;;;2.95;86.53;95082.84;1732736;82;20961;-80
2022/02/02 10:17:09;;;;;;;10.13;5.35;;;;;;;2.93;86.53;95089.42;1732687;82;20973;-80
2022/02/02 10:19:36;;;;;;;7.65;4.75;;;;;;;3.05;86.78;95092.41;1732406;83;20992;-80
2022/02/02 10:22:03;;;;;;;10.80;6.30;;;;;;;3.08;86.21;95100.25;1732667;82;20965;-80
2022/02/02 10:24:44;;;;;;;8.38;5.25;;;;;;;3.04;86.28;95101.56;1688959;83;21059;-80
2022/02/02 10:27:35;;;;;;;6.65;4.70;;;;;;;3.01;86.36;95104.78;1732453;83;21505;-80
2022/02/02 10:30:09;;;;;;;8.25;4.47;;;;;;;3.06;86.49;95100.42;1732487;83;21048;-80
2022/02/02 10:32:42;;;;;;;6.08;4.03;;;;;;;3.12;86.27;95101.06;1732471;82;21043;-80
2022/02/02 10:35:10;;;;;;;8.08;5.17;;;;;;;3.12;86.08;95099.77;1732552;83;20961;-80
2022/02/02 10:37:38;;;;;;;6.90;4.90;;;;;;;3.07;85.95;95103.79;1711888;83;21041;-80
2022/02/02 10:40:07;;;;;;;7.22;5.37;;;;;;;2.93;85.77;95113.00;1711966;83;21045;-80
2022/02/02 10:42:43;;;;;;;10.48;4.50;;;;;;;2.76;86.00;95122.48;1734067;82;20973;-80
2022/02/02 10:45:25;;;;;;;8.90;4.90;;;;;;;2.65;86.18;95113.88;1746340;82;21024;-80
2022/02/02 10:48:00;;;;;;;;;;;;;;;2.60;86.44;95123.80;1748741;82;21032;-80
2022/02/02 10:56:01;;;;;;;8.35;5.85;;;;;;;2.64;86.82;95127.66;1746176;82;20949;-80
2022/02/02 11:08:42;;;;;;;9.68;5.58;;;;;;;2.34;87.37;95152.20;1740961;82;21046;-81
2022/02/02 11:11:13;;;;;;;14.95;8.80;;;;;;;2.32;87.46;95153.65;1740497;82;21143;-80
2022/02/02 11:13:39;;;;;;;10.13;7.08;;;;;;;2.35;87.69;95155.09;1740972;82;21024;-80
2022/02/02 11:16:06;;;;;;;15.95;12.33;;;;;;;2.39;87.85;95157.16;1719849;82;20973;-80
2022/02/02 11:18:40;;;;;;;13.95;8.25;;;;;;;2.41;87.64;95154.43;1740752;82;20962;-80
2022/02/02 11:21:07;;;;;;;9.58;6.47;;;;;;;2.38;87.57;95147.87;1720397;82;21053;-80
2022/02/02 11:23:45;;;;;;;9.10;7.12;;;;;;;2.35;87.68;95164.06;1740915;82;20992;-80
2022/02/02 11:26:11;;;;;;;18.17;9.38;;;;;;;2.31;87.77;95153.81;1740934;82;21027;-80
2022/02/02 11:28:37;;;;;;;15.45;10.58;;;;;;;2.24;87.68;95150.27;1740935;82;21348;-80
2022/02/02 11:31:15;;;;;;;17.02;10.75;;;;;;;2.23;87.82;95148.67;1740857;81;20964;-80
2022/02/02 11:33:45;;;;;;;11.55;7.60;;;;;;;2.27;88.01;95146.90;1740981;82;20981;-80
2022/02/02 11:36:28;;;;;;;9.15;6.33;;;;;;;2.38;88.00;95144.02;1740318;82;21016;-80
2022/02/02 11:38:54;;;;;;;11.88;6.60;;;;;;;2.49;88.03;95140.82;1740780;81;20985;-80
2022/02/02 11:44:03;;;;;;;12.07;7.55;;;;;;;2.80;88.04;95140.94;1743883;82;21056;-80
2022/02/02 11:49:55;;;;;;;11.90;8.18;;;;;;;2.91;87.23;95146.50;1736789;81;20956;-80
2022/02/02 11:52:43;;;;;;;12.13;8.60;;;;;;;2.93;87.10;95145.87;1727785;82;21387;-80
2022/02/02 11:55:18;;;;;;;11.25;6.85;;;;;;;3.11;87.17;95137.16;1740896;82;21355;-80
2022/02/02 12:00:42;;;;;;;12.40;7.83;;;;;;;3.61;86.55;95141.42;1740829;82;21048;-80
2022/02/02 12:06:00;;;;;;;9.35;5.20;;;;;;;3.60;85.44;95144.97;1740903;82;21044;-81
2022/02/02 12:08:38;;;;;;;10.35;6.45;;;;;;;3.72;85.00;95152.27;1739560;82;21056;-80
2022/02/02 13:00:22;;;;;;;18.52;10.10;;;;;;;2.58;86.55;95242.41;1740878;82;20969;-80
2022/02/02 13:02:42;;;;;;;18.42;10.10;;;;;;;2.61;86.58;95245.95;1739946;82;21049;-80
2022/02/02 13:05:09;;;;;;;25.50;11.65;;;;;;;2.66;86.74;95251.40;1740978;82;20988;-80
2022/02/02 13:07:36;;;;;;;19.70;10.72;;;;;;;2.72;86.73;95252.03;1740870;82;21008;-80
2022/02/02 13:10:05;;;;;;;14.95;8.80;;;;;;;2.82;86.79;95241.61;1740713;82;20941;-80
2022/02/02 13:12:53;;;;;;;15.45;9.00;;;;;;;2.86;86.70;95244.97;1740719;82;21091;-80
2022/02/02 13:15:28;;;;;;;13.53;7.40;;;;;;;2.84;86.55;95249.95;1740142;82;21009;-80
2022/02/02 13:24:04;;;;;;;13.93;6.50;;;;;;;2.82;85.64;95245.46;1740891;82;21016;-80
2022/02/02 13:26:41;;;;;;;13.70;7.17;;;;;;;2.86;85.44;95244.17;1740715;82;21360;-80
2022/02/02 13:29:23;;;;;;;9.33;4.83;;;;;;;2.90;85.18;95255.70;1740078;82;21016;-81
2022/02/02 13:37:15;;;;;;;12.78;6.30;;;;;;;2.85;84.30;95270.30;1740670;82;21530;-80
2022/02/02 13:45:42;;;;;;;10.38;5.33;;;;;;;2.88;84.04;95263.56;1731535;82;21432;-80
2022/02/02 13:48:30;;;;;;;8.13;5.28;;;;;;;2.93;83.79;95262.63;1727750;82;21005;-80
2022/02/02 14:32:53;;;;;;;5.20;3.30;;;;;;;2.19;84.25;95397.27;1732612;83;20997;-80
2022/02/02 14:35:19;;;;;;;3.25;2.15;;;;;;;1.81;84.46;95404.46;1732584;82;20957;-81
2022/02/02 14:37:45;;;;;;;5.65;3.37;;;;;;;1.66;85.17;95401.65;1732668;83;21012;-80
2022/02/02 14:40:26;;;;;;;6.35;3.50;;;;;;;1.56;85.39;95410.38;1732539;83;21028;-80
2022/02/02 14:42:49;;;;;;;22.60;9.28;;;;;;;1.45;86.32;95411.41;1732053;82;21017;-80
2022/02/02 14:45:17;;;;;;;18.67;8.13;;;;;;;1.36;86.22;95411.03;1712580;83;21371;-80
2022/02/02 14:47:46;;;;;;;6.62;4.20;;;;;;;1.31;87.11;95420.92;1732846;81;21067;-80
2022/02/02 14:50:25;;;;;;;6.03;4.62;;;;;;;1.25;86.99;95416.38;1740386;82;21083;-80
2022/02/02 15:28:39;;;;;;;35.75;15.98;;;;;;;1.19;89.58;95494.07;1738594;81;21012;-80
2022/02/02 15:32:46;;;;;;;45.78;18.75;;;;;;;1.27;89.84;95492.05;1738612;82;20989;-80
2022/02/02 15:35:08;;;;;;;47.48;18.57;;;;;;;1.29;90.43;95490.62;1740068;82;20977;-80
2022/02/02 15:37:49;;;;;;;55.05;22.87;;;;;;;1.28;90.02;95485.98;1740830;82;21044;-80
2022/02/02 15:40:12;;;;;;;22.27;12.03;;;;;;;1.28;90.11;95505.17;1736798;82;20961;-80
2022/02/02 15:54:43;;;;;;;19.75;10.18;;;;;;;1.32;90.34;95516.75;1747321;82;20965;-80
2022/02/02 15:58:21;;;;;;;21.70;14.00;;;;;;;1.47;90.57;95533.69;1740668;82;20964;-80
2022/02/02 16:03:23;;;;;;;15.90;9.70;;;;;;;1.49;90.50;95544.58;1740905;82;20988;-80
2022/02/02 16:08:10;;;;;;;36.75;22.95;;;;;;;1.53;90.58;95556.61;1744514;81;20968;-80
2022/02/02 16:10:45;;;;;;;23.25;14.90;;;;;;;1.55;90.59;95550.86;1740915;82;21025;-80
2022/02/02 16:13:26;;;;;;;40.05;17.00;;;;;;;1.56;90.68;95559.67;1740706;82;22135;-81
2022/02/02 16:15:38;;;;;;;20.65;13.93;;;;;;;1.54;90.75;95567.17;1736927;82;21016;-80
2022/02/02 16:18:34;;;;;;;21.05;16.12;;;;;;;1.52;90.75;95580.13;1740952;82;21375;-79
2022/02/02 16:36:52;;;;;;;16.40;10.65;;;;;;;1.57;91.52;95609.93;1638177;87;20984;-80
2022/02/02 16:39:21;;;;;;;21.17;10.30;;;;;;;1.54;91.44;95615.83;1658156;85;21450;-80
2022/02/02 16:44:26;;;;;;;19.67;12.50;;;;;;;1.54;91.69;95629.91;1677633;84;21118;-80
2022/02/02 16:46:52;;;;;;;16.85;9.78;;;;;;;1.55;91.58;95645.59;1696853;84;21059;-80
2022/02/02 16:49:19;;;;;;;17.02;10.45;;;;;;;1.57;91.48;95637.30;1695318;85;21031;-80
2022/02/02 16:51:45;;;;;;;15.30;9.78;;;;;;;1.58;91.44;95637.14;1745987;82;21083;-80
2022/02/02 16:54:23;;;;;;;14.15;9.33;;;;;;;1.60;91.38;95657.01;1743113;82;21048;-80
2022/02/02 16:57:02;;;;;;;19.50;11.12;;;;;;;1.61;91.47;95664.21;1739094;82;21026;-80
2022/02/02 17:32:11;;;;;;;18.98;10.08;;;;;;;1.62;91.92;95708.88;1740947;81;20957;-80
2022/02/02 17:34:36;;;;;;;13.68;7.95;;;;;;;1.62;91.87;95705.04;1737097;82;21013;-80
2022/02/02 17:37:06;;;;;;;11.43;6.90;;;;;;;1.64;91.83;95699.33;1739632;82;21048;-80
2022/02/02 17:39:32;;;;;;;16.35;8.30;;;;;;;1.64;92.07;95707.48;1739428;82;20969;-80
2022/02/02 17:42:12;;;;;;;45.98;14.65;;;;;;;1.61;91.89;95705.98;1739592;82;20957;-80
2022/02/02 18:03:44;;;;;;;11.95;7.83;;;;;;;1.57;91.90;95742.27;1740958;82;21049;-80
2022/02/02 18:19:18;;;;;;;16.67;8.50;;;;;;;1.15;91.07;95826.68;1739768;82;21024;-80
2022/02/02 18:21:44;;;;;;;13.93;9.33;;;;;;;1.08;91.46;95835.03;1719724;82;20964;-80
2022/02/02 18:24:25;;;;;;;10.75;7.33;;;;;;;1.03;91.69;95857.19;1740757;82;21112;-80
2022/02/02 18:29:30;;;;;;;10.93;6.65;;;;;;;0.90;91.59;95878.39;1740936;82;21320;-80
2022/02/02 18:34:48;;;;;;;11.78;8.10;;;;;;;0.88;91.71;95889.23;1696672;84;21404;-80
2022/02/02 18:38:00;;;;;;;13.60;8.93;;;;;;;0.93;91.76;95896.02;1729087;82;20989;-80
2022/02/02 18:58:27;;;;;;;10.78;7.28;;;;;;;1.06;91.08;95926.47;1741050;81;20993;-80
2022/02/02 19:01:07;;;;;;;11.25;7.53;;;;;;;1.08;91.11;95927.95;1736999;82;20961;-80
2022/02/02 20:05:03;;;;;;;8.80;6.12;;;;;;;1.01;89.48;96073.17;1712199;83;21325;-80
2022/02/02 20:12:16;;;;;;;11.03;7.15;;;;;;;0.86;89.66;96089.34;1732782;82;21013;-80
2022/02/02 20:14:42;;;;;;;15.23;8.18;;;;;;;0.81;89.67;96081.23;1732942;82;20985;-80
2022/02/02 20:17:15;;;;;;;11.30;8.13;;;;;;;0.83;89.79;96081.94;1732774;82;21471;-80
2022/02/02 20:19:42;;;;;;;11.73;8.13;;;;;;;0.87;89.79;96076.90;1716531;83;21426;-80
2022/02/02 20:22:06;;;;;;;11.70;10.30;;;;;;;0.88;89.66;96083.63;1701671;84;20974;-80
2022/02/02 20:24:38;;;;;;;12.65;9.80;;;;;;;0.93;89.94;96085.32;1701995;84;21325;-80
2022/02/02 20:26:59;;;;;;;13.68;10.28;;;;;;;0.98;90.03;96103.67;1701320;84;21001;-80
2022/02/02 20:29:25;;;;;;;16.75;11.05;;;;;;;1.01;90.19;96111.08;1702158;84;21332;-80
2022/02/02 20:31:51;;;;;;;15.80;12.68;;;;;;;1.01;90.01;96104.69;1702178;84;21024;-80
2022/02/02 20:34:18;;;;;;;17.82;12.15;;;;;;;1.00;89.80;96122.73;1702146;84;20965;-81
2022/02/02 20:36:44;;;;;;;13.88;11.00;;;;;;;1.00;89.89;96131.69;1702421;84;20977;-80
2022/02/02 20:39:21;;;;;;;15.32;11.30;;;;;;;1.03;89.82;96137.34;1702023;84;21000;-80
2022/02/02 20:41:40;;;;;;;18.30;12.13;;;;;;;1.09;89.84;96136.02;1700681;84;20965;-80
2022/02/02 20:44:16;;;;;;;16.30;11.60;;;;;;;1.09;89.75;96149.61;1701985;84;21380;-80
2022/02/02 21:10:43;;;;;;;24.00;16.05;;;;;;;1.07;89.47;96146.84;1709634;83;20966;-80
2022/02/02 21:15:52;;;;;;;21.23;15.18;;;;;;;1.02;89.48;96170.27;1709911;83;21025;-80
2022/02/02 21:18:22;;;;;;;20.45;13.13;;;;;;;1.02;89.57;96180.50;1710027;83;20988;-80
2022/02/02 21:23:29;;;;;;;19.25;14.23;;;;;;;0.97;89.53;96189.48;1709929;84;21300;-80
2022/02/02 21:25:59;;;;;;;21.10;13.35;;;;;;;0.92;89.63;96207.77;1705980;84;21323;-80
2022/02/02 21:28:14;;;;;;;19.80;13.38;;;;;;;0.89;89.76;96206.28;1706094;84;20934;-80
2022/02/02 21:30:42;;;;;;;22.50;12.85;;;;;;;0.90;89.80;96216.05;1709966;84;21016;-80
2022/02/02 21:33:13;;;;;;;20.97;12.47;;;;;;;0.88;89.73;96216.17;1709856;83;21439;-80
2022/02/02 21:35:36;;;;;;;15.20;10.82;;;;;;;0.89;89.80;96222.10;1709238;84;20981;-80
2022/02/02 21:38:08;;;;;;;16.27;10.08;;;;;;;0.85;89.55;96220.74;1709870;84;20980;-80
2022/02/02 21:40:30;;;;;;;21.42;12.63;;;;;;;0.83;89.66;96229.01;1709261;84;20969;-80
2022/02/02 21:42:57;;;;;;;17.95;11.03;;;;;;;0.80;89.74;96235.16;1709897;83;20934;-80
2022/02/02 21:45:24;;;;;;;18.95;12.70;;;;;;;0.77;89.71;96243.56;1711116;83;21076;-80
2022/02/02 21:47:50;;;;;;;22.98;14.93;;;;;;;0.72;89.85;96240.58;1718019;83;21064;-80
2022/02/02 21:50:18;;;;;;;21.45;13.75;;;;;;;0.69;89.87;96242.91;1717825;83;21068;-81
2022/02/02 21:52:46;;;;;;;23.27;13.03;;;;;;;0.73;90.05;96246.84;1718438;83;21024;-81
2022/02/02 21:55:12;;;;;;;23.38;14.05;;;;;;;0.75;90.07;96251.36;1720007;83;20933;-80
2022/02/02 21:57:38;;;;;;;22.82;13.90;;;;;;;0.79;90.00;96258.31;1713480;83;21395;-80
2022/02/02 22:00:09;;;;;;;25.72;16.48;;;;;;;0.79;90.07;96259.12;1709845;84;20957;-80
2022/02/02 22:02:36;;;;;;;20.10;14.03;;;;;;;0.77;90.05;96272.97;1709955;84;22014;-80
2022/02/02 22:05:04;;;;;;;19.55;13.40;;;;;;;0.75;90.12;96277.41;1709994;83;21250;-80
2022/02/02 22:07:31;;;;;;;20.25;12.98;;;;;;;0.73;90.11;96272.41;1709864;83;21060;-81
2022/02/02 22:09:58;;;;;;;21.57;13.60;;;;;;;0.75;90.13;96282.05;1709965;83;21054;-80
2022/02/02 22:12:24;;;;;;;19.67;14.10;;;;;;;0.81;90.15;96292.24;1709863;83;21024;-80
2022/02/02 22:14:52;;;;;;;18.60;12.33;;;;;;;0.84;90.18;96290.73;1709556;84;21080;-80
2022/02/02 22:17:21;;;;;;;17.57;12.70;;;;;;;0.83;90.10;96289.13;1709960;84;21005;-80
2022/02/02 22:19:51;;;;;;;21.05;13.72;;;;;;;0.77;90.11;96293.43;1709955;83;21399;-80
2022/02/02 22:22:14;;;;;;;18.90;14.03;;;;;;;0.75;90.36;96303.79;1709386;84;21461;-80
2022/02/02 22:24:40;;;;;;;21.35;12.43;;;;;;;0.73;90.43;96312.52;1709867;83;21013;-80
2022/02/02 22:27:06;;;;;;;20.50;14.20;;;;;;;0.78;90.47;96323.19;1709849;83;21091;-80
2022/02/02 22:29:31;;;;;;;18.17;13.05;;;;;;;0.74;90.37;96329.02;1709924;84;21352;-80
2022/02/02 22:31:58;;;;;;;21.93;12.90;;;;;;;0.76;90.47;96337.84;1710002;83;20980;-80
2022/02/02 22:34:23;;;;;;;18.73;13.53;;;;;;;0.73;90.31;96337.63;1709858;84;20938;-80
2022/02/02 22:36:51;;;;;;;17.48;11.48;;;;;;;0.70;90.25;96339.16;1710007;84;21406;-80
2022/02/02 22:39:17;;;;;;;17.25;11.25;;;;;;;0.61;89.98;96350.10;1689741;84;20961;-80
2022/02/02 22:41:43;;;;;;;16.50;11.80;;;;;;;0.53;89.88;96346.88;1710018;83;20985;-80
2022/02/02 22:44:12;;;;;;;14.78;9.88;;;;;;;0.55;90.09;96349.31;1709655;83;21068;-80
2022/02/02 22:46:37;;;;;;;14.00;10.45;;;;;;;0.54;89.92;96349.78;1712340;83;20990;-80
2022/02/02 22:49:03;;;;;;;16.90;11.75;;;;;;;0.51;90.00;96350.50;1734204;82;21373;-80